Aviation Digital Data Service (ADDS)

Output produced by METARs form (0142 UTC 29 May 2022)
found at http://www.aviationweather.gov/metar/data/
 
LHKE 290115Z 32004KT CAVOK 12/11 Q1014 NOSIG RMK BLU
LHKE 290045Z 32006KT CAVOK 12/11 Q1014 NOSIG RMK BLU
LHKE 290015Z 32004KT CAVOK 12/11 Q1014 NOSIG RMK BLU
LHKE 282345Z 30004KT CAVOK 13/11 Q1014 NOSIG RMK BLU
LHKE 282315Z 30006KT CAVOK 13/12 Q1015 NOSIG RMK BLU
LHKE 282245Z 30004KT CAVOK 13/12 Q1015 NOSIG RMK BLU
LHKE 282215Z 28006KT CAVOK 14/12 Q1015 NOSIG RMK BLU
LHKE 282145Z 28008KT CAVOK 14/12 Q1015 NOSIG RMK BLU
LHKE 282115Z 28008KT CAVOK 14/12 Q1015 NOSIG RMK BLU
LHKE 282045Z 27008KT CAVOK 14/12 Q1015 NOSIG RMK BLU
LHKE 282015Z 26008KT CAVOK 14/12 Q1015 NOSIG RMK BLU
LHKE 281945Z 26008KT 230V290 CAVOK 14/12 Q1015 NOSIG RMK BLU
TAF LHKE 282015Z 2821/2906 25010KT CAVOK 
     BECMG 2821/2824 32006KT 
     BECMG 2900/2903 02006KT